Time;durP1;ratioP1;P1;durP2;ratioP2;P2;SDS_P1;SDS_P2;PMS_P1;PMS_P2;Temp;Humidity;BMP_temperature;BMP_pressure;BME280_temperature;BME280_humidity;BME280_pressure;Samples;Min_cycle;Max_cycle;Signal;HPM_P1;HPM_P2
2021/04/28 00:00:58;;;;;;;11.82;7.40;;;5.50;60.10;;;;;;2079681;28;20079;-70
2021/04/28 00:03:45;;;;;;;12.13;7.55;;;5.40;61.20;;;;;;2080371;28;20072;-70
2021/04/28 00:04:51;;;;;;;11.38;6.93;;;5.40;61.40;;;;;;2079634;28;20091;-70
2021/04/28 00:05:57;;;;;;;10.77;7.32;;;5.40;61.20;;;;;;2079643;28;20371;-71
2021/04/28 00:07:03;;;;;;;10.82;7.25;;;5.40;61.40;;;;;;2080142;28;20454;-72
2021/04/28 00:08:18;;;;;;;12.77;7.32;;;5.40;61.40;;;;;;2079172;28;20033;-73
2021/04/28 00:09:19;;;;;;;11.48;7.32;;;5.40;61.30;;;;;;2079809;28;20739;-72
2021/04/28 00:10:40;;;;;;;11.32;7.57;;;5.40;61.30;;;;;;2080358;28;20033;-70
2021/04/28 00:11:43;;;;;;;11.65;7.22;;;5.40;61.30;;;;;;2080396;28;20076;-69
2021/04/28 00:13:02;;;;;;;12.70;7.53;;;5.30;61.60;;;;;;2080426;28;20030;-69
2021/04/28 00:14:04;;;;;;;13.35;7.70;;;5.30;62.00;;;;;;2068120;28;20030;-70
2021/04/28 00:15:13;;;;;;;13.30;7.82;;;5.30;62.20;;;;;;2080455;28;20026;-70
2021/04/28 00:16:20;;;;;;;12.75;8.07;;;5.20;62.40;;;;;;2080451;28;20056;-70
2021/04/28 00:17:27;;;;;;;11.63;7.63;;;5.20;62.70;;;;;;2080191;28;20484;-70
2021/04/28 00:18:28;;;;;;;14.23;7.95;;;5.20;62.80;;;;;;2080026;28;20061;-70
2021/04/28 00:19:41;;;;;;;13.18;8.43;;;5.20;62.70;;;;;;2080368;28;20930;-70
2021/04/28 00:20:46;;;;;;;16.80;10.15;;;5.20;62.60;;;;;;2080444;28;20045;-70
2021/04/28 00:21:53;;;;;;;18.38;10.65;;;5.20;62.40;;;;;;2064317;28;20031;-70
2021/04/28 00:22:56;;;;;;;18.75;11.80;;;5.20;62.40;;;;;;2079626;28;20033;-70
2021/04/28 00:24:05;;;;;;;21.50;12.38;;;5.20;62.50;;;;;;2079402;28;20030;-70
2021/04/28 00:25:17;;;;;;;25.30;13.75;;;5.10;62.30;;;;;;2080581;28;20029;-71
2021/04/28 00:26:20;;;;;;;33.60;16.60;;;5.20;62.10;;;;;;2074278;28;20516;-71
2021/04/28 00:27:46;;;;;;;31.77;16.92;;;5.20;61.70;;;;;;2078139;28;20151;-71
2021/04/28 00:28:49;;;;;;;28.80;14.80;;;5.20;61.50;;;;;;2080970;28;20034;-70
2021/04/28 00:29:55;;;;;;;25.85;13.65;;;5.20;61.80;;;;;;2081560;28;20071;-71
2021/04/28 00:30:58;;;;;;;20.40;11.68;;;5.20;61.50;;;;;;2080903;28;20036;-71
2021/04/28 00:32:04;;;;;;;23.00;12.30;;;5.20;61.30;;;;;;2081169;28;20030;-71
2021/04/28 00:33:16;;;;;;;21.30;12.15;;;5.20;61.30;;;;;;2081955;28;20108;-71
2021/04/28 00:34:19;;;;;;;20.80;12.00;;;5.20;61.90;;;;;;2082056;28;20076;-70
2021/04/28 00:35:38;;;;;;;21.08;12.50;;;5.10;62.50;;;;;;2081520;28;20495;-71
2021/04/28 00:36:45;;;;;;;26.67;15.05;;;5.10;62.70;;;;;;2081330;28;20025;-70
2021/04/28 00:37:57;;;;;;;31.13;16.30;;;5.10;62.70;;;;;;2064821;28;20031;-69
2021/04/28 00:39:01;;;;;;;27.17;14.70;;;5.10;62.60;;;;;;2080974;28;20034;-71
2021/04/28 00:40:21;;;;;;;24.45;13.73;;;5.10;62.50;;;;;;2080919;28;20053;-70
2021/04/28 00:41:23;;;;;;;24.40;13.23;;;5.00;62.20;;;;;;2081559;28;20018;-71
2021/04/28 00:42:40;;;;;;;21.77;12.02;;;5.10;62.20;;;;;;2081678;28;20587;-70
2021/04/28 00:43:43;;;;;;;20.80;11.13;;;5.00;62.20;;;;;;2081606;28;20029;-71
2021/04/28 00:44:49;;;;;;;19.70;11.05;;;5.00;62.30;;;;;;2081515;28;20404;-71
2021/04/28 00:45:57;;;;;;;18.40;10.50;;;5.00;62.40;;;;;;2065920;28;20575;-70
2021/04/28 00:47:23;;;;;;;15.02;9.75;;;5.00;62.40;;;;;;2081197;28;20025;-71
2021/04/28 00:48:30;;;;;;;17.20;10.05;;;5.00;62.40;;;;;;2081438;28;20024;-71
2021/04/28 00:49:48;;;;;;;17.13;10.43;;;5.00;62.60;;;;;;2080799;28;20045;-71
2021/04/28 00:51:20;;;;;;;16.83;9.80;;;5.00;62.50;;;;;;2077719;28;20116;-71
2021/04/28 00:52:24;;;;;;;19.17;10.50;;;5.00;62.50;;;;;;2081569;28;20112;-70
2021/04/28 00:53:31;;;;;;;16.95;9.98;;;4.90;62.80;;;;;;2081631;28;20060;-71
2021/04/28 00:54:53;;;;;;;16.42;10.02;;;4.90;63.00;;;;;;2064838;28;20038;-70
2021/04/28 00:56:10;;;;;;;17.40;9.75;;;4.90;63.30;;;;;;2072598;28;20022;-70
2021/04/28 00:57:19;;;;;;;18.55;10.40;;;4.90;63.20;;;;;;2074467;28;20017;-71
2021/04/28 00:58:39;;;;;;;16.48;10.15;;;4.90;63.40;;;;;;2077173;28;20021;-70
2021/04/28 01:00:09;;;;;;;16.25;10.20;;;4.90;63.70;;;;;;2081465;28;20482;-71
2021/04/28 01:01:13;;;;;;;15.48;9.40;;;4.80;63.90;;;;;;2070242;28;20025;-70
2021/04/28 01:02:39;;;;;;;16.52;10.52;;;4.80;64.40;;;;;;2079605;28;20032;-71
2021/04/28 01:03:51;;;;;;;16.65;10.80;;;4.80;64.50;;;;;;2080210;28;20041;-71
2021/04/28 01:05:24;;;;;;;18.92;11.82;;;4.80;64.30;;;;;;2066918;28;20421;-71
2021/04/28 01:06:54;;;;;;;20.88;13.30;;;4.70;64.30;;;;;;2080732;28;20029;-70
2021/04/28 01:08:39;;;;;;;22.15;14.52;;;4.80;64.40;;;;;;2078535;28;20392;-70
2021/04/28 01:09:49;;;;;;;21.33;12.70;;;4.70;64.80;;;;;;2081064;28;20034;-70
2021/04/28 01:10:56;;;;;;;22.33;13.13;;;4.70;64.90;;;;;;2072494;28;20759;-70
2021/04/28 01:12:03;;;;;;;17.30;11.25;;;4.70;64.80;;;;;;2073386;28;20026;-71
2021/04/28 01:13:19;;;;;;;17.98;11.23;;;4.70;64.80;;;;;;2073629;28;20026;-71
2021/04/28 01:14:31;;;;;;;17.70;10.98;;;4.70;64.80;;;;;;2080765;28;20535;-70
2021/04/28 01:15:38;;;;;;;16.90;10.27;;;4.70;65.10;;;;;;2080539;28;20021;-71
2021/04/28 01:17:06;;;;;;;18.30;10.52;;;4.60;65.20;;;;;;2072082;28;20061;-69
2021/04/28 01:18:16;;;;;;;16.70;10.50;;;4.60;65.00;;;;;;2080564;28;20037;-71
2021/04/28 01:19:22;;;;;;;17.63;10.73;;;4.60;65.10;;;;;;2080585;28;20031;-70
2021/04/28 01:20:36;;;;;;;14.15;9.75;;;4.60;65.00;;;;;;2080732;28;20566;-70
2021/04/28 01:22:07;;;;;;;15.48;9.88;;;4.60;65.20;;;;;;2080697;28;20064;-71
2021/04/28 01:23:31;;;;;;;14.88;9.48;;;4.60;65.40;;;;;;2071375;28;20091;-70
2021/04/28 01:24:44;;;;;;;15.38;9.77;;;4.60;65.80;;;;;;2080956;28;20033;-71
2021/04/28 01:25:54;;;;;;;17.25;10.63;;;4.50;65.90;;;;;;2081293;28;20029;-71
2021/04/28 01:27:10;;;;;;;15.45;10.05;;;4.60;66.20;;;;;;2080354;28;20473;-71
2021/04/28 01:28:21;;;;;;;14.75;9.77;;;4.60;66.20;;;;;;2061777;28;20024;-70
2021/04/28 01:29:37;;;;;;;16.40;10.13;;;4.50;66.30;;;;;;2074960;28;20034;-68
2021/04/28 01:30:53;;;;;;;;;;;4.50;66.80;;;;;;2081062;28;20040;-71
2021/04/28 01:31:57;;;;;;;17.33;10.48;;;4.50;67.30;;;;;;2059513;28;19921;-71
2021/04/28 01:33:21;;;;;;;18.05;10.77;;;4.50;67.40;;;;;;2073249;28;20029;-71
2021/04/28 01:34:49;;;;;;;14.75;10.52;;;4.50;67.40;;;;;;2081480;28;20025;-70
2021/04/28 01:36:21;;;;;;;14.95;9.68;;;4.40;67.50;;;;;;2074664;28;20092;-71
2021/04/28 01:37:30;;;;;;;15.95;10.00;;;4.40;67.80;;;;;;2074789;28;20041;-71
2021/04/28 01:38:55;;;;;;;;;;;4.40;67.90;;;;;;2074947;28;20421;-71
2021/04/28 01:40:03;;;;;;;17.60;9.98;;;4.40;67.80;;;;;;2081653;28;19995;-71
2021/04/28 01:41:29;;;;;;;14.93;9.75;;;4.40;67.90;;;;;;2082014;28;20029;-71
2021/04/28 01:42:33;;;;;;;14.48;9.85;;;4.30;68.10;;;;;;2081652;28;20497;-71
2021/04/28 01:43:44;;;;;;;14.52;8.98;;;4.30;68.20;;;;;;2081383;28;20060;-70
2021/04/28 01:44:51;;;;;;;15.30;8.85;;;4.30;68.90;;;;;;2082422;28;20745;-71
2021/04/28 01:45:55;;;;;;;13.60;8.93;;;4.30;68.40;;;;;;2066326;28;20425;-71
2021/04/28 01:47:26;;;;;;;12.98;8.88;;;4.30;68.60;;;;;;2079028;28;20065;-70
2021/04/28 01:48:41;;;;;;;13.35;8.70;;;4.30;68.90;;;;;;2075627;28;20052;-71
2021/04/28 01:49:49;;;;;;;13.52;9.10;;;4.30;69.00;;;;;;2071165;28;20397;-71
2021/04/28 01:50:55;;;;;;;13.05;8.60;;;4.30;68.90;;;;;;2073019;28;20084;-71
2021/04/28 01:52:01;;;;;;;13.93;8.55;;;4.30;69.00;;;;;;2072302;28;20026;-71
2021/04/28 01:53:17;;;;;;;13.75;8.90;;;4.30;68.80;;;;;;2080509;28;20022;-70
2021/04/28 01:54:41;;;;;;;14.70;9.02;;;4.30;68.80;;;;;;2080166;28;20029;-70
2021/04/28 01:55:44;;;;;;;13.45;8.80;;;4.30;68.70;;;;;;2080507;28;20064;-70
2021/04/28 01:57:13;;;;;;;11.25;8.25;;;4.30;68.60;;;;;;2080929;28;20029;-70
2021/04/28 01:58:41;;;;;;;13.57;8.82;;;4.30;68.80;;;;;;2076114;28;20042;-71
2021/04/28 02:00:29;;;;;;;13.45;8.43;;;4.30;69.00;;;;;;2080028;28;20033;-70
2021/04/28 02:01:50;;;;;;;14.13;8.57;;;4.30;69.20;;;;;;2070742;28;20025;-70
2021/04/28 02:02:55;;;;;;;12.93;8.85;;;4.30;69.40;;;;;;2074951;28;20033;-71
2021/04/28 02:03:59;;;;;;;14.80;8.82;;;4.30;69.50;;;;;;2080911;28;20119;-71
2021/04/28 02:05:08;;;;;;;13.27;8.45;;;4.20;69.50;;;;;;2080057;28;20116;-69
2021/04/28 02:06:19;;;;;;;13.48;8.13;;;4.20;69.60;;;;;;2071354;28;20046;-71
2021/04/28 02:07:23;;;;;;;12.10;8.45;;;4.20;69.50;;;;;;2073285;28;20026;-71
2021/04/28 02:08:26;;;;;;;13.52;8.77;;;4.20;69.40;;;;;;2072073;28;20108;-70
2021/04/28 02:10:25;;;;;;;15.13;9.43;;;4.20;69.50;;;;;;2072305;28;20026;-70
2021/04/28 02:11:26;;;;;;;15.52;8.68;;;4.20;69.70;;;;;;2079672;28;20075;-71
2021/04/28 02:12:47;;;;;;;14.57;8.77;;;4.20;69.40;;;;;;2080044;28;20126;-70
2021/04/28 02:13:53;;;;;;;14.05;8.63;;;4.20;69.60;;;;;;2072064;28;20069;-70
2021/04/28 02:15:16;;;;;;;13.40;8.50;;;4.20;69.70;;;;;;2080150;28;20025;-70
2021/04/28 02:16:31;;;;;;;14.40;9.10;;;4.20;69.60;;;;;;2080675;28;20051;-70
2021/04/28 02:17:42;;;;;;;;;;;4.20;69.50;;;;;;2080481;28;20029;-70
2021/04/28 02:18:52;;;;;;;18.67;11.00;;;4.20;69.40;;;;;;2079913;28;19917;-70
2021/04/28 02:19:59;;;;;;;17.23;10.40;;;4.10;69.60;;;;;;2066935;28;20432;-71
2021/04/28 02:21:06;;;;;;;21.02;12.90;;;4.10;69.90;;;;;;2087847;28;20124;-70
2021/04/28 02:22:40;;;;;;;22.55;13.35;;;4.10;70.00;;;;;;2058229;28;20093;-70
2021/04/28 02:23:52;;;;;;;24.40;14.48;;;4.10;70.20;;;;;;2063947;28;20085;-71
2021/04/28 02:24:55;;;;;;;22.25;14.20;;;4.10;70.40;;;;;;2072295;28;20060;-70
2021/04/28 02:26:04;;;;;;;24.65;14.20;;;4.10;70.50;;;;;;2073121;28;20034;-70
2021/04/28 02:27:06;;;;;;;22.20;13.75;;;4.00;70.60;;;;;;2071775;28;20116;-71
2021/04/28 02:28:09;;;;;;;21.02;12.98;;;4.10;70.70;;;;;;2074372;28;20040;-70
2021/04/28 02:29:18;;;;;;;20.80;13.18;;;4.10;71.50;;;;;;2079877;28;20411;-70
2021/04/28 02:30:25;;;;;;;18.15;11.48;;;4.10;70.90;;;;;;2071769;28;20157;-70
2021/04/28 02:31:26;;;;;;;18.80;11.05;;;4.10;71.00;;;;;;2080109;28;20105;-70
2021/04/28 02:32:32;;;;;;;18.30;11.23;;;4.10;71.10;;;;;;2080013;28;20046;-70
2021/04/28 02:33:47;;;;;;;18.70;11.30;;;4.10;70.90;;;;;;2073609;28;20072;-70
2021/04/28 02:35:13;;;;;;;17.52;10.60;;;4.00;70.90;;;;;;2075072;28;20032;-69
2021/04/28 02:36:39;;;;;;;16.33;9.93;;;4.00;71.30;;;;;;2079885;28;20034;-70
2021/04/28 02:38:18;;;;;;;15.55;9.43;;;4.00;71.60;;;;;;2062745;28;20038;-70
2021/04/28 02:39:39;;;;;;;15.82;9.95;;;4.00;72.00;;;;;;2068151;28;20209;-70
2021/04/28 02:40:41;;;;;;;15.35;9.95;;;3.90;72.00;;;;;;2079823;28;20061;-70
2021/04/28 02:41:44;;;;;;;15.63;9.73;;;3.90;72.10;;;;;;2071772;28;20041;-70
2021/04/28 02:42:47;;;;;;;15.20;9.68;;;3.90;72.20;;;;;;2079968;28;20036;-71
2021/04/28 02:43:48;;;;;;;14.43;10.18;;;3.90;72.40;;;;;;2080472;28;20033;-71
2021/04/28 02:44:57;;;;;;;15.02;9.90;;;3.90;72.50;;;;;;2065317;28;20453;-71
2021/04/28 02:46:01;;;;;;;14.05;10.05;;;3.90;72.60;;;;;;2080005;28;20030;-71
2021/04/28 02:47:05;;;;;;;15.52;10.18;;;3.90;72.60;;;;;;2079743;28;20512;-71
2021/04/28 02:48:07;;;;;;;17.38;10.80;;;3.90;72.80;;;;;;2071626;28;20033;-70
2021/04/28 02:49:16;;;;;;;18.10;11.27;;;3.90;73.00;;;;;;2072622;28;20022;-70
2021/04/28 02:50:51;;;;;;;21.42;12.93;;;3.90;73.10;;;;;;2060105;28;20454;-69
2021/04/28 02:51:59;;;;;;;22.73;14.43;;;3.90;73.30;;;;;;2079814;28;20033;-70
2021/04/28 02:53:16;;;;;;;23.52;14.73;;;3.90;73.50;;;;;;2073893;28;20018;-71
2021/04/28 02:54:20;;;;;;;22.88;15.13;;;3.80;73.60;;;;;;2080180;28;20111;-71
2021/04/28 02:55:21;;;;;;;24.88;15.20;;;3.90;73.80;;;;;;2080038;28;20443;-70
2021/04/28 02:56:22;;;;;;;23.35;14.50;;;3.80;73.80;;;;;;2072080;28;20037;-71
2021/04/28 02:57:24;;;;;;;21.35;13.90;;;3.80;73.80;;;;;;2068406;28;20034;-70
2021/04/28 02:58:27;;;;;;;20.48;13.88;;;3.80;73.80;;;;;;2073975;28;20041;-70
2021/04/28 02:59:39;;;;;;;24.17;13.75;;;3.80;73.90;;;;;;2080683;28;20036;-72
2021/04/28 03:00:40;;;;;;;20.88;13.27;;;3.80;74.20;;;;;;2079633;28;20132;-72
2021/04/28 03:01:42;;;;;;;19.83;12.43;;;3.80;74.20;;;;;;2079840;28;20056;-72
2021/04/28 03:02:43;;;;;;;18.30;11.68;;;3.80;74.30;;;;;;2079718;28;20504;-72
2021/04/28 03:03:44;;;;;;;17.38;11.23;;;3.80;74.30;;;;;;2071656;28;20026;-72
2021/04/28 03:04:53;;;;;;;17.92;11.10;;;3.80;74.30;;;;;;2065131;28;20058;-72
2021/04/28 03:06:29;;;;;;;16.27;10.80;;;3.80;74.30;;;;;;2079885;28;20033;-69
2021/04/28 03:07:35;;;;;;;16.08;10.95;;;3.80;74.50;;;;;;2079717;28;20025;-69
2021/04/28 03:08:37;;;;;;;19.95;11.93;;;3.80;74.40;;;;;;2071408;28;20045;-70
2021/04/28 03:09:39;;;;;;;17.23;11.60;;;3.80;74.40;;;;;;2071774;28;20099;-70
2021/04/28 03:10:41;;;;;;;18.98;11.82;;;3.80;74.30;;;;;;2071717;28;20072;-69
2021/04/28 03:11:43;;;;;;;15.93;11.65;;;3.80;74.20;;;;;;2079829;28;20025;-70
2021/04/28 03:12:49;;;;;;;17.13;11.38;;;3.80;74.20;;;;;;2080425;28;20025;-67
2021/04/28 03:13:50;;;;;;;16.10;10.85;;;3.80;74.20;;;;;;2079755;28;20068;-69
2021/04/28 03:14:52;;;;;;;15.85;11.18;;;3.80;74.20;;;;;;2079938;28;20021;-70
2021/04/28 03:15:54;;;;;;;15.55;10.73;;;3.80;74.20;;;;;;2080516;28;20670;-70
2021/04/28 03:16:56;;;;;;;15.75;10.98;;;3.80;74.30;;;;;;2079568;28;20212;-69
2021/04/28 03:17:56;;;;;;;17.70;11.65;;;3.80;74.40;;;;;;2071484;28;20030;-70
2021/04/28 03:19:06;;;;;;;17.48;11.00;;;3.80;74.10;;;;;;2079734;28;20022;-69
2021/04/28 03:20:08;;;;;;;17.63;11.10;;;3.80;74.00;;;;;;2072128;28;20125;-69
2021/04/28 03:21:18;;;;;;;15.20;10.55;;;3.80;74.00;;;;;;2072714;28;20045;-70
2021/04/28 03:22:19;;;;;;;15.60;9.93;;;3.80;73.80;;;;;;2071990;28;20026;-69
2021/04/28 03:23:21;;;;;;;14.13;9.95;;;3.80;73.80;;;;;;2071531;28;20022;-70
2021/04/28 03:24:22;;;;;;;14.68;9.85;;;3.80;73.90;;;;;;2071466;28;20015;-70
2021/04/28 03:25:23;;;;;;;14.23;9.40;;;3.70;73.90;;;;;;2071643;28;20121;-70
2021/04/28 03:26:30;;;;;;;14.48;9.63;;;3.80;74.20;;;;;;2072387;28;20072;-70
2021/04/28 03:27:31;;;;;;;14.82;9.57;;;3.70;74.20;;;;;;2069192;28;20788;-69
2021/04/28 03:28:33;;;;;;;14.15;10.00;;;3.70;74.40;;;;;;2069037;28;20033;-69
2021/04/28 03:29:34;;;;;;;17.40;10.43;;;3.70;74.70;;;;;;2079770;28;20021;-70
2021/04/28 03:30:35;;;;;;;15.20;10.65;;;3.70;74.80;;;;;;2080436;28;20032;-71
2021/04/28 03:31:37;;;;;;;13.05;9.57;;;3.70;75.00;;;;;;2080382;28;20034;-70
2021/04/28 03:32:39;;;;;;;16.13;10.18;;;3.70;75.10;;;;;;2079492;28;20022;-69
2021/04/28 03:33:56;;;;;;;14.93;9.82;;;3.70;75.00;;;;;;2073580;28;20470;-69
2021/04/28 03:34:56;;;;;;;15.20;9.68;;;3.70;74.90;;;;;;2071527;28;20117;-69
2021/04/28 03:35:57;;;;;;;17.50;9.73;;;3.70;74.90;;;;;;2071860;28;20493;-70
2021/04/28 03:37:04;;;;;;;16.10;9.07;;;3.70;74.90;;;;;;2079940;28;20029;-70
2021/04/28 03:38:14;;;;;;;;;;;3.70;75.80;;;;;;2072012;28;20366;-70
2021/04/28 03:39:15;;;;;;;17.38;9.65;;;3.60;75.00;;;;;;2065052;28;19932;-70
2021/04/28 03:40:16;;;;;;;15.02;9.57;;;3.60;75.20;;;;;;2080134;28;20024;-69
2021/04/28 03:41:17;;;;;;;15.73;9.85;;;3.60;75.20;;;;;;2079894;28;20033;-71
2021/04/28 03:42:22;;;;;;;14.55;9.55;;;3.60;75.30;;;;;;2080097;28;20503;-69
2021/04/28 03:43:23;;;;;;;13.60;9.35;;;3.60;75.40;;;;;;2079839;28;20025;-69
2021/04/28 03:44:25;;;;;;;14.40;9.73;;;3.60;75.30;;;;;;2079979;28;20026;-70
2021/04/28 03:45:31;;;;;;;15.52;9.90;;;3.60;75.40;;;;;;2080544;28;20033;-69
2021/04/28 03:46:33;;;;;;;14.68;10.00;;;3.60;75.40;;;;;;2080464;28;20025;-69
2021/04/28 03:47:34;;;;;;;14.88;9.68;;;3.60;75.40;;;;;;2079670;28;20083;-70
2021/04/28 03:48:35;;;;;;;17.27;10.43;;;3.70;75.60;;;;;;2071480;28;20014;-69
2021/04/28 03:49:36;;;;;;;14.07;9.50;;;3.70;75.50;;;;;;2079707;28;20531;-70
2021/04/28 03:50:36;;;;;;;13.43;9.77;;;3.70;75.40;;;;;;2080322;28;20029;-69
2021/04/28 03:51:38;;;;;;;14.77;9.10;;;3.70;75.40;;;;;;2079623;28;20555;-70
2021/04/28 03:52:51;;;;;;;14.88;9.75;;;3.70;75.30;;;;;;2064135;28;20034;-69
2021/04/28 03:54:12;;;;;;;16.15;10.05;;;3.70;75.30;;;;;;2079482;28;20025;-70
2021/04/28 03:55:14;;;;;;;15.50;9.88;;;3.70;75.40;;;;;;2079648;28;20095;-69
2021/04/28 03:56:15;;;;;;;17.25;10.20;;;3.70;75.20;;;;;;2080171;28;20544;-69
2021/04/28 03:57:16;;;;;;;16.95;10.25;;;3.70;75.30;;;;;;2079188;28;20033;-69
2021/04/28 03:58:17;;;;;;;15.00;10.32;;;3.70;75.20;;;;;;2075419;28;20029;-69
2021/04/28 03:59:18;;;;;;;14.68;9.65;;;3.70;75.10;;;;;;2080132;28;20508;-69
2021/04/28 04:00:23;;;;;;;18.00;10.80;;;3.70;75.20;;;;;;2080968;28;20033;-71
2021/04/28 04:01:33;;;;;;;14.32;9.73;;;3.70;75.40;;;;;;2074170;28;20385;-70
2021/04/28 04:02:36;;;;;;;15.15;9.77;;;3.70;75.30;;;;;;2073323;28;20038;-68
2021/04/28 04:03:55;;;;;;;17.27;10.43;;;3.70;75.10;;;;;;2081660;28;20128;-69
2021/04/28 04:05:15;;;;;;;17.05;10.32;;;3.80;75.10;;;;;;2081225;28;20022;-71
2021/04/28 04:06:34;;;;;;;16.45;10.20;;;3.80;75.10;;;;;;2077978;28;20048;-70
2021/04/28 04:07:53;;;;;;;18.20;9.52;;;3.80;75.10;;;;;;2077461;28;20025;-70
2021/04/28 04:09:05;;;;;;;17.90;10.15;;;3.80;75.10;;;;;;2066333;28;20135;-69
2021/04/28 04:10:06;;;;;;;15.90;10.20;;;3.80;75.00;;;;;;2066602;28;20031;-69
2021/04/28 04:11:08;;;;;;;14.82;9.70;;;3.80;74.80;;;;;;2073126;28;20568;-70
2021/04/28 04:12:09;;;;;;;16.17;10.50;;;3.80;74.90;;;;;;2081304;28;20107;-70
2021/04/28 04:13:21;;;;;;;15.23;9.48;;;3.90;74.90;;;;;;2081642;28;20037;-70
2021/04/28 04:14:22;;;;;;;13.57;9.60;;;3.90;74.90;;;;;;2074757;28;20072;-70
2021/04/28 04:15:24;;;;;;;13.15;9.15;;;3.90;75.00;;;;;;2073385;28;20033;-70
2021/04/28 04:16:25;;;;;;;14.85;9.70;;;3.90;75.10;;;;;;2073118;28;20033;-70
2021/04/28 04:17:26;;;;;;;15.68;9.77;;;3.90;74.90;;;;;;2081291;28;20488;-69
2021/04/28 04:18:53;;;;;;;14.30;9.23;;;3.90;74.90;;;;;;2068661;28;20038;-70
2021/04/28 04:19:55;;;;;;;14.70;9.82;;;3.90;74.80;;;;;;2081937;28;20026;-70
2021/04/28 04:21:13;;;;;;;13.45;9.43;;;3.90;75.00;;;;;;2075498;28;20026;-70
2021/04/28 04:22:14;;;;;;;14.35;8.95;;;4.00;75.00;;;;;;2081544;28;20439;-69
2021/04/28 04:23:25;;;;;;;14.02;9.50;;;4.00;74.80;;;;;;2081234;28;20029;-71
2021/04/28 04:24:55;;;;;;;15.20;9.52;;;4.00;74.70;;;;;;2064559;28;20037;-70
2021/04/28 04:25:55;;;;;;;16.00;9.52;;;4.00;74.60;;;;;;2064593;28;20034;-70
2021/04/28 04:27:16;;;;;;;16.50;10.02;;;4.10;74.50;;;;;;2080545;28;20081;-70
2021/04/28 04:28:23;;;;;;;16.00;10.20;;;4.10;74.70;;;;;;2077456;28;20033;-69
2021/04/28 04:29:43;;;;;;;14.93;9.48;;;4.10;74.50;;;;;;2081779;28;20033;-69
2021/04/28 04:31:03;;;;;;;17.85;10.05;;;4.20;74.30;;;;;;2069584;28;20046;-70
2021/04/28 04:32:22;;;;;;;14.88;9.75;;;4.20;74.00;;;;;;2081890;28;20030;-68
2021/04/28 04:33:45;;;;;;;14.10;9.05;;;4.20;74.00;;;;;;2072343;28;20113;-71
2021/04/28 04:35:06;;;;;;;13.73;9.00;;;4.30;73.90;;;;;;2069602;28;20074;-70
2021/04/28 04:36:26;;;;;;;13.60;9.25;;;4.40;73.70;;;;;;2081781;28;20065;-69
2021/04/28 04:37:45;;;;;;;15.95;9.88;;;4.60;73.20;;;;;;2080824;28;20029;-69
2021/04/28 04:39:05;;;;;;;14.02;9.48;;;4.80;72.70;;;;;;2069348;28;20034;-71
2021/04/28 04:40:26;;;;;;;14.98;9.60;;;5.00;71.80;;;;;;2080878;28;20021;-70
2021/04/28 04:41:41;;;;;;;17.15;9.30;;;5.30;70.90;;;;;;2081321;28;20574;-70
2021/04/28 04:43:02;;;;;;;12.52;8.88;;;5.50;69.70;;;;;;2069511;28;20093;-70
2021/04/28 04:44:19;;;;;;;13.25;8.57;;;5.80;68.30;;;;;;2081493;28;20026;-70
2021/04/28 04:45:33;;;;;;;14.70;9.20;;;6.10;67.10;;;;;;2075250;28;20117;-71
2021/04/28 04:46:34;;;;;;;12.73;8.70;;;6.30;65.90;;;;;;2073255;28;20054;-71
2021/04/28 04:47:35;;;;;;;14.95;9.30;;;6.50;64.90;;;;;;2081248;28;20067;-70
2021/04/28 04:48:36;;;;;;;13.60;9.10;;;6.70;64.70;;;;;;2080610;28;20506;-70
2021/04/28 04:49:38;;;;;;;15.40;9.13;;;6.80;63.60;;;;;;2080830;28;20025;-71
2021/04/28 04:50:39;;;;;;;15.68;9.05;;;7.00;62.90;;;;;;2081578;28;20021;-69
2021/04/28 04:51:40;;;;;;;16.30;9.00;;;7.10;62.30;;;;;;2081857;28;20029;-71
2021/04/28 04:52:42;;;;;;;15.48;9.55;;;7.10;61.60;;;;;;2081618;28;20775;-71
2021/04/28 04:53:42;;;;;;;15.23;9.68;;;7.20;61.20;;;;;;2081812;28;20040;-71
2021/04/28 04:54:43;;;;;;;18.83;10.13;;;7.30;60.90;;;;;;2081742;28;20037;-70
2021/04/28 04:55:43;;;;;;;15.02;9.85;;;7.40;60.40;;;;;;2081573;28;20048;-70
2021/04/28 04:56:44;;;;;;;14.38;9.73;;;7.50;60.00;;;;;;2081555;28;20040;-70
2021/04/28 04:57:45;;;;;;;13.77;9.18;;;7.70;59.60;;;;;;2076174;28;20022;-73
2021/04/28 04:58:45;;;;;;;18.33;9.25;;;7.80;59.30;;;;;;2072730;28;20057;-70
2021/04/28 04:59:46;;;;;;;15.93;9.63;;;8.00;58.70;;;;;;2080932;28;20045;-70
2021/04/28 05:00:47;;;;;;;16.95;9.95;;;8.20;58.20;;;;;;2081404;28;20048;-72
2021/04/28 05:01:47;;;;;;;19.50;9.93;;;8.30;57.50;;;;;;2081290;28;20028;-70
2021/04/28 05:02:48;;;;;;;18.08;9.63;;;8.40;57.10;;;;;;2081392;28;20083;-72
2021/04/28 05:03:49;;;;;;;16.45;9.90;;;8.60;56.80;;;;;;2081343;28;20037;-71
2021/04/28 05:04:49;;;;;;;16.83;9.48;;;8.70;56.50;;;;;;2065327;28;20177;-71
2021/04/28 05:05:50;;;;;;;14.77;9.10;;;8.80;56.20;;;;;;2080634;28;20124;-71
2021/04/28 05:06:52;;;;;;;18.23;9.50;;;9.00;55.80;;;;;;2080926;28;20056;-71
2021/04/28 05:07:53;;;;;;;15.63;9.43;;;9.10;55.20;;;;;;2080126;28;20640;-71
2021/04/28 05:08:53;;;;;;;18.02;9.32;;;9.20;54.80;;;;;;2080652;28;20034;-70
2021/04/28 05:09:54;;;;;;;17.77;10.10;;;9.30;54.50;;;;;;2081258;28;20393;-70
2021/04/28 05:10:55;;;;;;;16.50;9.38;;;9.40;54.30;;;;;;2080567;28;20036;-70
2021/04/28 05:11:55;;;;;;;20.63;9.65;;;9.60;54.10;;;;;;2080940;28;20061;-70
2021/04/28 05:12:56;;;;;;;15.80;9.85;;;9.70;53.90;;;;;;2081374;28;20033;-71
2021/04/28 05:13:57;;;;;;;19.80;9.98;;;9.80;53.40;;;;;;2081285;28;20438;-71
2021/04/28 05:14:57;;;;;;;17.45;9.75;;;10.00;53.20;;;;;;2080691;28;20358;-70
2021/04/28 05:15:58;;;;;;;19.73;9.75;;;10.10;52.90;;;;;;2080506;28;20030;-71
2021/04/28 05:16:59;;;;;;;16.25;9.82;;;10.20;52.70;;;;;;2081230;28;20029;-71
2021/04/28 05:17:59;;;;;;;17.98;9.10;;;10.30;52.20;;;;;;2080993;28;20109;-72
2021/04/28 05:19:00;;;;;;;19.27;9.77;;;10.40;51.90;;;;;;2081355;28;20129;-71
2021/04/28 05:20:01;;;;;;;15.52;8.88;;;10.60;51.40;;;;;;2081164;28;20044;-70
2021/04/28 05:21:01;;;;;;;16.15;9.27;;;10.70;51.00;;;;;;2080518;28;20029;-71
2021/04/28 05:22:02;;;;;;;17.25;9.52;;;10.80;50.80;;;;;;2080536;28;20488;-71
2021/04/28 05:23:05;;;;;;;15.05;8.75;;;10.90;50.40;;;;;;2080441;28;20091;-70
2021/04/28 05:24:21;;;;;;;18.35;9.10;;;11.00;50.00;;;;;;2074448;28;20053;-71
2021/04/28 05:25:48;;;;;;;18.80;9.13;;;11.20;49.60;;;;;;2060392;28;20506;-71
2021/04/28 05:26:49;;;;;;;26.45;11.02;;;11.30;49.10;;;;;;2072984;28;20026;-73
2021/04/28 05:27:49;;;;;;;24.48;11.00;;;11.40;48.60;;;;;;2070262;28;20565;-71
2021/04/28 05:28:50;;;;;;;22.05;10.77;;;11.60;48.30;;;;;;2080999;28;20025;-71
2021/04/28 05:29:52;;;;;;;22.88;10.60;;;11.70;47.80;;;;;;2080393;28;20492;-72
2021/04/28 05:30:52;;;;;;;21.05;10.65;;;11.70;47.10;;;;;;2080480;28;20029;-71
2021/04/28 05:31:53;;;;;;;16.02;9.82;;;11.80;46.70;;;;;;2081066;28;20061;-71
2021/04/28 05:32:53;;;;;;;18.05;10.38;;;11.90;46.50;;;;;;2081018;28;20112;-71
2021/04/28 05:33:54;;;;;;;19.17;9.98;;;12.00;46.40;;;;;;2081047;28;20465;-71
2021/04/28 05:34:55;;;;;;;13.57;9.75;;;12.10;46.40;;;;;;2081128;28;20036;-71
2021/04/28 05:35:55;;;;;;;14.98;9.55;;;12.20;46.20;;;;;;2081028;28;20117;-71
2021/04/28 05:36:56;;;;;;;15.45;9.50;;;12.30;45.60;;;;;;2080950;28;20124;-73
2021/04/28 05:37:57;;;;;;;18.52;9.93;;;12.40;45.20;;;;;;2080714;28;20083;-71
2021/04/28 05:38:59;;;;;;;17.45;9.55;;;12.50;44.70;;;;;;2081199;28;20047;-72
2021/04/28 05:39:59;;;;;;;15.43;9.65;;;12.60;44.50;;;;;;2080970;28;20052;-71
2021/04/28 05:41:00;;;;;;;13.57;9.25;;;12.70;44.30;;;;;;2080954;28;20656;-72
2021/04/28 05:42:00;;;;;;;17.45;9.65;;;12.70;44.00;;;;;;2080872;28;20033;-71
2021/04/28 05:43:01;;;;;;;16.48;10.30;;;12.80;43.70;;;;;;2081061;28;20029;-71
2021/04/28 05:44:02;;;;;;;18.05;9.82;;;12.80;43.50;;;;;;2080361;28;20040;-71
2021/04/28 05:45:08;;;;;;;18.05;9.90;;;12.80;42.90;;;;;;2080435;28;20113;-71
2021/04/28 05:46:10;;;;;;;17.58;9.65;;;12.80;42.60;;;;;;2081059;28;20558;-71
2021/04/28 05:47:11;;;;;;;14.10;9.13;;;12.80;42.80;;;;;;2080245;28;20033;-72
2021/04/28 05:48:14;;;;;;;15.90;9.40;;;12.80;43.00;;;;;;2080084;28;20025;-71
2021/04/28 05:49:15;;;;;;;12.60;8.95;;;12.80;42.90;;;;;;2081150;28;20025;-72
2021/04/28 05:50:18;;;;;;;15.07;9.77;;;12.90;42.90;;;;;;2081120;28;20408;-72
2021/04/28 05:51:18;;;;;;;18.15;10.02;;;12.90;43.10;;;;;;2081213;28;20024;-72
2021/04/28 05:52:20;;;;;;;15.95;10.05;;;12.90;43.30;;;;;;2081133;28;20049;-72
2021/04/28 05:53:21;;;;;;;18.65;9.70;;;13.00;43.20;;;;;;2081131;28;20114;-71
2021/04/28 05:54:22;;;;;;;19.70;10.07;;;12.90;43.10;;;;;;2081165;28;20707;-72
2021/04/28 05:55:23;;;;;;;18.10;10.00;;;12.80;43.20;;;;;;2081205;28;20033;-72
2021/04/28 05:56:24;;;;;;;14.88;9.02;;;12.60;43.40;;;;;;2081076;28;20116;-72
2021/04/28 05:57:24;;;;;;;17.65;10.13;;;12.40;43.40;;;;;;2078377;28;20033;-72